Genco Champion — VRDK5 — position and weather

sailwx.info

Track history (hours):
 
Tides and Currents Weather Stations Pressure Air Temp Water Temp Dewpoint Dewpoint Depression Visibility Wind Speed Wind Dir Waves Ship Positions

Genco Champion

Last reported at 2018-Apr-12 00:24 UTC. Time now 2018-Apr-19 19:20 UTC.
Position N 39°03' W 030°50'.

Length 170 m; draft 9.8 m.

Type: Cargo ship. MMSI: 477985400.

Date/timePositionNaut miles runAvg speedWind from/ knotsBaromVisibWave heightAir tempDewpointWater temp
2018-Apr-12 00:24N 39°03' W 030°50'2510.7
2018-Apr-11 22:04N 39°13' W 030°21'410.8
2018-Apr-11 21:41N 39°16' W 030°16'210.7
2018-Apr-11 21:30N 39°17' W 030°14'611.0
2018-Apr-11 20:58N 39°19' W 030°07'510.8
2018-Apr-11 20:29N 39°21' W 030°01'511.0
2018-Apr-11 19:59N 39°24' W 029°55'511.0
2018-Apr-11 19:30N 39°27' W 029°49'611.0
2018-Apr-11 18:59N 39°30' W 029°43'611.1
2018-Apr-11 18:27N 39°33' W 029°36'511.1
2018-Apr-11 17:59N 39°36' W 029°31'611.0
2018-Apr-11 17:29N 39°39' W 029°25'510.7
2018-Apr-11 16:59N 39°42' W 029°19'510.8
2018-Apr-11 16:30N 39°44' W 029°13'510.6
2018-Apr-11 16:00N 39°47' W 029°07'5 9.9
2018-Apr-11 15:28N 39°49' W 029°01'510.2
2018-Apr-11 15:00N 39°50' W 028°55'510.6
2018-Apr-11 14:30N 39°53' W 028°49'510.6
2018-Apr-11 13:59N 39°56' W 028°43'  
2018-Apr-05 22:21N 49°48' W 004°25'1010.3
2018-Apr-05 21:25N 49°49' W 004°11'1510.2
2018-Apr-05 19:57N 49°50' W 003°47'610.4
2018-Apr-05 19:24N 49°51' W 003°39'510.9
2018-Apr-05 18:59N 49°52' W 003°32'511.2
2018-Apr-05 18:30N 49°53' W 003°24'611.7
2018-Apr-05 18:00N 49°55' W 003°15'612.6
2018-Apr-05 17:30N 49°57' W 003°06'713.2
2018-Apr-05 17:00N 49°58' W 002°56'713.6
2018-Apr-05 16:30N 50°00' W 002°46'713.7
2018-Apr-05 16:00N 50°02' W 002°36'2412.7
2018-Apr-05 14:06N 50°09' W 001°59'111.2
2018-Apr-05 14:00N 50°09' W 001°58'510.7
2018-Apr-05 13:30N 50°11' W 001°50'5 9.8
2018-Apr-05 13:00N 50°12' W 001°43'5 9.2
2018-Apr-05 12:30N 50°14' W 001°36'5 8.5
2018-Apr-05 11:55N 50°15' W 001°29'3 8.0
2018-Apr-05 11:30N 50°16' W 001°23'41 9.7
2018-Apr-05 07:16N 50°26' W 000°21'312.5
2018-Apr-05 07:00N 50°27' W 000°16'612.4
2018-Apr-05 06:30N 50°29' W 000°07'612.5
2018-Apr-05 06:00N 50°31' E 000°03'612.3
2018-Apr-05 05:30N 50°33' E 000°12'612.0
2018-Apr-05 05:00N 50°35' E 000°21'611.6
2018-Apr-05 04:30N 50°37' E 000°29'610.9
2018-Apr-05 04:00N 50°39' E 000°37'510.5
2018-Apr-05 03:30N 50°42' E 000°44'5 9.9
2018-Apr-05 03:00N 50°44' E 000°51'5 9.3
2018-Apr-05 02:30N 50°47' E 000°57'5 9.1
2018-Apr-05 01:59N 50°50' E 001°02'4 8.9
2018-Apr-05 01:30N 50°53' E 001°07'11 9.4
2018-Apr-05 00:18N 51°01' E 001°20'310.3
2018-Apr-04 23:58N 51°03' E 001°24'511.7
2018-Apr-04 23:30N 51°07' E 001°31'612.8
2018-Apr-04 23:00N 51°10' E 001°39'612.9
2018-Apr-04 22:30N 51°15' E 001°47'612.7
2018-Apr-04 22:00N 51°20' E 001°52'612.2
2018-Apr-04 21:30N 51°26' E 001°56'611.4
2018-Apr-04 21:01N 51°30' E 002°02'510.8
2018-Apr-04 20:30N 51°34' E 002°08'510.3
2018-Apr-04 20:00N 51°38' E 002°14'510.0
2018-Apr-04 19:30N 51°42' E 002°19'5 9.7
2018-Apr-04 18:58N 51°45' E 002°25'5 9.6
2018-Apr-04 18:30N 51°49' E 002°30'42410.6
2018-Apr-03 02:32N 57°41' E 009°20'111.1
2018-Apr-03 02:28N 57°41' E 009°21'611.5
2018-Apr-03 01:57N 57°44' E 009°31'611.7
2018-Apr-03 01:26N 57°46' E 009°42'511.6
2018-Apr-03 01:00N 57°47' E 009°51'611.5
2018-Apr-03 00:30N 57°48' E 010°01'611.6
2018-Apr-03 00:00N 57°48' E 010°12'611.8
2018-Apr-02 23:30N 57°48' E 010°23'611.5
2018-Apr-02 23:00N 57°48' E 010°34'611.2
2018-Apr-02 22:30N 57°48' E 010°45'611.6
2018-Apr-02 22:00N 57°44' E 010°53'611.7
2018-Apr-02 21:30N 57°40' E 011°02'611.8
2018-Apr-02 21:00N 57°36' E 011°10'611.6
2018-Apr-02 20:30N 57°32' E 011°18'611.2
2018-Apr-02 20:00N 57°29' E 011°26'611.3
2018-Apr-02 19:30N 57°24' E 011°29'611.3
2018-Apr-02 19:01N 57°18' E 011°33'611.3
2018-Apr-02 18:30N 57°13' E 011°37'611.4
2018-Apr-02 18:00N 57°08' E 011°40'611.4
2018-Apr-02 17:30N 57°02' E 011°44'611.3
2018-Apr-02 17:00N 56°57' E 011°47'611.3
2018-Apr-02 16:30N 56°52' E 011°50'611.6
2018-Apr-02 16:00N 56°46' E 011°53'510.8
2018-Apr-02 15:30N 56°41' E 011°50'611.6
2018-Apr-02 15:00N 56°36' E 011°44'611.5
2018-Apr-02 14:30N 56°31' E 011°39'7510.0
2018-Apr-02 07:00N 55°19' E 011°02'510.9
2018-Apr-02 06:30N 55°14' E 011°06'510.6
2018-Apr-02 06:00N 55°09' E 011°03'611.2
2018-Apr-02 05:30N 55°03' E 011°02'510.5
2018-Apr-02 05:00N 54°58' E 010°60'510.3
2018-Apr-02 04:29N 54°54' E 010°54'510.1
2018-Apr-02 04:00N 54°49' E 010°52'510.1
2018-Apr-02 03:30N 54°44' E 010°50'4 8.8
2018-Apr-02 03:00N 54°40' E 010°49'510.3
2018-Apr-02 02:30N 54°37' E 010°56'510.6
2018-Apr-02 02:01N 54°36' E 011°05'510.9
2018-Apr-02 01:30N 54°35' E 011°14'511.0
2018-Apr-02 01:00N 54°33' E 011°23'510.9
2018-Apr-02 00:30N 54°30' E 011°31'  
Track history (hours):
 
Tides and Currents Weather Stations Pressure Air Temp Water Temp Dewpoint Dewpoint Depression Visibility Wind Speed Wind Dir Waves Ship Positions

Genco Champion

Last reported at 2018-Apr-12 00:24 UTC. Time now 2018-Apr-19 19:20 UTC.
Position N 39°03' W 030°50'.

Length 170 m; draft 9.8 m.

Type: Cargo ship. MMSI: 477985400.

Date/timePositionNaut miles runAvg speedWind from/ knotsBaromVisibWave heightAir tempDewpointWater temp
2018-Apr-12 00:24N 39°03' W 030°50'2510.7
2018-Apr-11 22:04N 39°13' W 030°21'410.8
2018-Apr-11 21:41N 39°16' W 030°16'210.7
2018-Apr-11 21:30N 39°17' W 030°14'611.0
2018-Apr-11 20:58N 39°19' W 030°07'510.8
2018-Apr-11 20:29N 39°21' W 030°01'511.0
2018-Apr-11 19:59N 39°24' W 029°55'511.0
2018-Apr-11 19:30N 39°27' W 029°49'611.0
2018-Apr-11 18:59N 39°30' W 029°43'611.1
2018-Apr-11 18:27N 39°33' W 029°36'511.1
2018-Apr-11 17:59N 39°36' W 029°31'611.0
2018-Apr-11 17:29N 39°39' W 029°25'510.7
2018-Apr-11 16:59N 39°42' W 029°19'510.8
2018-Apr-11 16:30N 39°44' W 029°13'510.6
2018-Apr-11 16:00N 39°47' W 029°07'5 9.9
2018-Apr-11 15:28N 39°49' W 029°01'510.2
2018-Apr-11 15:00N 39°50' W 028°55'510.6
2018-Apr-11 14:30N 39°53' W 028°49'510.6
2018-Apr-11 13:59N 39°56' W 028°43'  
2018-Apr-05 22:21N 49°48' W 004°25'1010.3
2018-Apr-05 21:25N 49°49' W 004°11'1510.2
2018-Apr-05 19:57N 49°50' W 003°47'610.4
2018-Apr-05 19:24N 49°51' W 003°39'510.9
2018-Apr-05 18:59N 49°52' W 003°32'511.2
2018-Apr-05 18:30N 49°53' W 003°24'611.7
2018-Apr-05 18:00N 49°55' W 003°15'612.6
2018-Apr-05 17:30N 49°57' W 003°06'713.2
2018-Apr-05 17:00N 49°58' W 002°56'713.6
2018-Apr-05 16:30N 50°00' W 002°46'713.7
2018-Apr-05 16:00N 50°02' W 002°36'2412.7
2018-Apr-05 14:06N 50°09' W 001°59'111.2
2018-Apr-05 14:00N 50°09' W 001°58'510.7
2018-Apr-05 13:30N 50°11' W 001°50'5 9.8
2018-Apr-05 13:00N 50°12' W 001°43'5 9.2
2018-Apr-05 12:30N 50°14' W 001°36'5 8.5
2018-Apr-05 11:55N 50°15' W 001°29'3 8.0
2018-Apr-05 11:30N 50°16' W 001°23'41 9.7
2018-Apr-05 07:16N 50°26' W 000°21'312.5
2018-Apr-05 07:00N 50°27' W 000°16'612.4
2018-Apr-05 06:30N 50°29' W 000°07'612.5
2018-Apr-05 06:00N 50°31' E 000°03'612.3
2018-Apr-05 05:30N 50°33' E 000°12'612.0
2018-Apr-05 05:00N 50°35' E 000°21'611.6
2018-Apr-05 04:30N 50°37' E 000°29'610.9
2018-Apr-05 04:00N 50°39' E 000°37'510.5
2018-Apr-05 03:30N 50°42' E 000°44'5 9.9
2018-Apr-05 03:00N 50°44' E 000°51'5 9.3
2018-Apr-05 02:30N 50°47' E 000°57'5 9.1
2018-Apr-05 01:59N 50°50' E 001°02'4 8.9
2018-Apr-05 01:30N 50°53' E 001°07'11 9.4
2018-Apr-05 00:18N 51°01' E 001°20'310.3
2018-Apr-04 23:58N 51°03' E 001°24'511.7
2018-Apr-04 23:30N 51°07' E 001°31'612.8
2018-Apr-04 23:00N 51°10' E 001°39'612.9
2018-Apr-04 22:30N 51°15' E 001°47'612.7
2018-Apr-04 22:00N 51°20' E 001°52'612.2
2018-Apr-04 21:30N 51°26' E 001°56'611.4
2018-Apr-04 21:01N 51°30' E 002°02'510.8
2018-Apr-04 20:30N 51°34' E 002°08'510.3
2018-Apr-04 20:00N 51°38' E 002°14'510.0
2018-Apr-04 19:30N 51°42' E 002°19'5 9.7
2018-Apr-04 18:58N 51°45' E 002°25'5 9.6
2018-Apr-04 18:30N 51°49' E 002°30'42410.6
2018-Apr-03 02:32N 57°41' E 009°20'111.1
2018-Apr-03 02:28N 57°41' E 009°21'611.5
2018-Apr-03 01:57N 57°44' E 009°31'611.7
2018-Apr-03 01:26N 57°46' E 009°42'511.6
2018-Apr-03 01:00N 57°47' E 009°51'611.5
2018-Apr-03 00:30N 57°48' E 010°01'611.6
2018-Apr-03 00:00N 57°48' E 010°12'611.8
2018-Apr-02 23:30N 57°48' E 010°23'611.5
2018-Apr-02 23:00N 57°48' E 010°34'611.2
2018-Apr-02 22:30N 57°48' E 010°45'611.6
2018-Apr-02 22:00N 57°44' E 010°53'611.7
2018-Apr-02 21:30N 57°40' E 011°02'611.8
2018-Apr-02 21:00N 57°36' E 011°10'611.6
2018-Apr-02 20:30N 57°32' E 011°18'611.2
2018-Apr-02 20:00N 57°29' E 011°26'611.3
2018-Apr-02 19:30N 57°24' E 011°29'611.3
2018-Apr-02 19:01N 57°18' E 011°33'611.3
2018-Apr-02 18:30N 57°13' E 011°37'611.4
2018-Apr-02 18:00N 57°08' E 011°40'611.4
2018-Apr-02 17:30N 57°02' E 011°44'611.3
2018-Apr-02 17:00N 56°57' E 011°47'611.3
2018-Apr-02 16:30N 56°52' E 011°50'611.6
2018-Apr-02 16:00N 56°46' E 011°53'510.8
2018-Apr-02 15:30N 56°41' E 011°50'611.6
2018-Apr-02 15:00N 56°36' E 011°44'611.5
2018-Apr-02 14:30N 56°31' E 011°39'7510.0
2018-Apr-02 07:00N 55°19' E 011°02'510.9
2018-Apr-02 06:30N 55°14' E 011°06'510.6
2018-Apr-02 06:00N 55°09' E 011°03'611.2
2018-Apr-02 05:30N 55°03' E 011°02'510.5
2018-Apr-02 05:00N 54°58' E 010°60'510.3
2018-Apr-02 04:29N 54°54' E 010°54'510.1
2018-Apr-02 04:00N 54°49' E 010°52'510.1
2018-Apr-02 03:30N 54°44' E 010°50'4 8.8
2018-Apr-02 03:00N 54°40' E 010°49'510.3
2018-Apr-02 02:30N 54°37' E 010°56'510.6
2018-Apr-02 02:01N 54°36' E 011°05'510.9
2018-Apr-02 01:30N 54°35' E 011°14'511.0
2018-Apr-02 01:00N 54°33' E 011°23'510.9
2018-Apr-02 00:30N 54°30' E 011°31'  

Dump ship's entire track history